sensor_id;sensor_type;location;lat;lon;timestamp;temperature;humidity
26342;DHT22;14054;50.108;8.640;2022-09-27T00:01:52;10.40;99.90
26342;DHT22;14054;50.108;8.640;2022-09-27T00:04:18;10.40;99.90
26342;DHT22;14054;50.108;8.640;2022-09-27T00:06:43;10.50;99.90
26342;DHT22;14054;50.108;8.640;2022-09-27T00:09:09;10.40;99.90
26342;DHT22;14054;50.108;8.640;2022-09-27T00:11:36;10.40;99.90
26342;DHT22;14054;50.108;8.640;2022-09-27T00:14:02;10.50;99.90
26342;DHT22;14054;50.108;8.640;2022-09-27T00:16:29;10.40;99.90
26342;DHT22;14054;50.108;8.640;2022-09-27T00:18:59;10.50;99.90
26342;DHT22;14054;50.108;8.640;2022-09-27T00:21:25;10.40;99.90
26342;DHT22;14054;50.108;8.640;2022-09-27T00:23:50;10.40;99.90
26342;DHT22;14054;50.108;8.640;2022-09-27T00:26:15;10.40;99.90
26342;DHT22;14054;50.108;8.640;2022-09-27T00:28:41;10.40;99.90
26342;DHT22;14054;50.108;8.640;2022-09-27T00:34:01;10.40;99.90
26342;DHT22;14054;50.108;8.640;2022-09-27T00:36:28;10.50;99.90
26342;DHT22;14054;50.108;8.640;2022-09-27T00:38:54;10.40;99.90
26342;DHT22;14054;50.108;8.640;2022-09-27T00:41:21;10.50;99.90
26342;DHT22;14054;50.108;8.640;2022-09-27T00:46:12;10.50;99.90
26342;DHT22;14054;50.108;8.640;2022-09-27T00:48:39;10.50;99.90
26342;DHT22;14054;50.108;8.640;2022-09-27T00:51:05;10.50;99.90
26342;DHT22;14054;50.108;8.640;2022-09-27T00:53:36;10.50;99.90
26342;DHT22;14054;50.108;8.640;2022-09-27T00:56:08;10.40;99.90
26342;DHT22;14054;50.108;8.640;2022-09-27T00:58:38;10.50;99.90
26342;DHT22;14054;50.108;8.640;2022-09-27T01:01:07;10.50;99.90
26342;DHT22;14054;50.108;8.640;2022-09-27T01:06:19;10.40;99.90
26342;DHT22;14054;50.108;8.640;2022-09-27T01:08:45;10.40;99.90
26342;DHT22;14054;50.108;8.640;2022-09-27T01:11:30;10.50;99.90
26342;DHT22;14054;50.108;8.640;2022-09-27T01:16:47;10.50;99.90
26342;DHT22;14054;50.108;8.640;2022-09-27T01:19:34;10.40;99.90
26342;DHT22;14054;50.108;8.640;2022-09-27T01:22:13;10.40;99.90
26342;DHT22;14054;50.108;8.640;2022-09-27T01:29:43;10.40;99.90
26342;DHT22;14054;50.108;8.640;2022-09-27T01:42:24;10.40;99.90
26342;DHT22;14054;50.108;8.640;2022-09-27T01:44:58;10.40;99.90
26342;DHT22;14054;50.108;8.640;2022-09-27T01:47:30;10.40;99.90
26342;DHT22;14054;50.108;8.640;2022-09-27T01:52:34;10.30;99.90
26342;DHT22;14054;50.108;8.640;2022-09-27T01:55:02;10.30;99.90
26342;DHT22;14054;50.108;8.640;2022-09-27T01:57:31;10.30;99.90
26342;DHT22;14054;50.108;8.640;2022-09-27T01:59:59;10.30;99.90
26342;DHT22;14054;50.108;8.640;2022-09-27T02:02:26;10.40;99.90
26342;DHT22;14054;50.108;8.640;2022-09-27T02:04:56;10.40;99.90
26342;DHT22;14054;50.108;8.640;2022-09-27T02:07:28;10.30;99.90
26342;DHT22;14054;50.108;8.640;2022-09-27T02:10:02;10.30;99.90
26342;DHT22;14054;50.108;8.640;2022-09-27T02:12:30;10.30;99.90
26342;DHT22;14054;50.108;8.640;2022-09-27T02:15:17;10.40;99.90
26342;DHT22;14054;50.108;8.640;2022-09-27T02:20:11;10.30;99.90
26342;DHT22;14054;50.108;8.640;2022-09-27T02:22:50;10.30;99.90
26342;DHT22;14054;50.108;8.640;2022-09-27T02:27:51;10.30;99.90
26342;DHT22;14054;50.108;8.640;2022-09-27T02:30:18;10.30;99.90
26342;DHT22;14054;50.108;8.640;2022-09-27T02:32:44;10.40;99.90
26342;DHT22;14054;50.108;8.640;2022-09-27T02:35:14;10.30;99.90
26342;DHT22;14054;50.108;8.640;2022-09-27T02:37:41;10.30;99.90
26342;DHT22;14054;50.108;8.640;2022-09-27T02:40:07;10.30;99.90
26342;DHT22;14054;50.108;8.640;2022-09-27T02:42:32;10.30;99.90
26342;DHT22;14054;50.108;8.640;2022-09-27T02:44:59;10.40;99.90
26342;DHT22;14054;50.108;8.640;2022-09-27T02:47:31;10.40;99.90
26342;DHT22;14054;50.108;8.640;2022-09-27T02:53:07;10.40;99.90
26342;DHT22;14054;50.108;8.640;2022-09-27T02:58:23;10.40;99.90
26342;DHT22;14054;50.108;8.640;2022-09-27T03:01:02;10.40;99.90
26342;DHT22;14054;50.108;8.640;2022-09-27T03:03:42;10.40;99.90
26342;DHT22;14054;50.108;8.640;2022-09-27T03:06:10;10.40;99.90
26342;DHT22;14054;50.108;8.640;2022-09-27T03:08:37;10.30;99.90
26342;DHT22;14054;50.108;8.640;2022-09-27T03:11:03;10.40;99.90
26342;DHT22;14054;50.108;8.640;2022-09-27T03:13:29;10.40;99.90
26342;DHT22;14054;50.108;8.640;2022-09-27T03:15:54;10.40;99.90
26342;DHT22;14054;50.108;8.640;2022-09-27T03:18:20;10.40;99.90
26342;DHT22;14054;50.108;8.640;2022-09-27T03:20:45;10.40;99.90
26342;DHT22;14054;50.108;8.640;2022-09-27T03:23:11;10.40;99.90
26342;DHT22;14054;50.108;8.640;2022-09-27T03:25:36;10.40;99.90
26342;DHT22;14054;50.108;8.640;2022-09-27T03:28:01;10.40;99.90
26342;DHT22;14054;50.108;8.640;2022-09-27T03:30:27;10.40;99.90
26342;DHT22;14054;50.108;8.640;2022-09-27T03:32:52;10.40;99.90
26342;DHT22;14054;50.108;8.640;2022-09-27T03:35:18;10.40;99.90
26342;DHT22;14054;50.108;8.640;2022-09-27T03:37:43;10.30;99.90
26342;DHT22;14054;50.108;8.640;2022-09-27T03:40:09;10.30;99.90
26342;DHT22;14054;50.108;8.640;2022-09-27T03:42:34;10.30;99.90
26342;DHT22;14054;50.108;8.640;2022-09-27T03:45:00;10.30;99.90
26342;DHT22;14054;50.108;8.640;2022-09-27T03:47:25;10.30;99.90
26342;DHT22;14054;50.108;8.640;2022-09-27T03:49:52;10.20;99.90
26342;DHT22;14054;50.108;8.640;2022-09-27T03:52:18;10.20;99.90
26342;DHT22;14054;50.108;8.640;2022-09-27T03:54:43;10.20;99.90
26342;DHT22;14054;50.108;8.640;2022-09-27T03:57:09;10.20;99.90
26342;DHT22;14054;50.108;8.640;2022-09-27T03:59:35;10.20;99.90
26342;DHT22;14054;50.108;8.640;2022-09-27T04:02:00;10.10;99.90
26342;DHT22;14054;50.108;8.640;2022-09-27T04:04:25;10.20;99.90
26342;DHT22;14054;50.108;8.640;2022-09-27T04:06:51;10.10;99.90
26342;DHT22;14054;50.108;8.640;2022-09-27T04:09:16;10.10;99.90
26342;DHT22;14054;50.108;8.640;2022-09-27T04:11:42;10.10;99.90
26342;DHT22;14054;50.108;8.640;2022-09-27T04:14:07;10.10;99.90
26342;DHT22;14054;50.108;8.640;2022-09-27T04:16:33;10.10;99.90
26342;DHT22;14054;50.108;8.640;2022-09-27T04:18:58;10.00;99.90
26342;DHT22;14054;50.108;8.640;2022-09-27T04:21:26;10.00;99.90
26342;DHT22;14054;50.108;8.640;2022-09-27T04:23:51;10.00;99.90
26342;DHT22;14054;50.108;8.640;2022-09-27T04:26:17;10.00;99.90
26342;DHT22;14054;50.108;8.640;2022-09-27T04:28:42;10.00;99.90
26342;DHT22;14054;50.108;8.640;2022-09-27T04:31:08;9.90;99.90
26342;DHT22;14054;50.108;8.640;2022-09-27T04:33:34;9.90;99.90
26342;DHT22;14054;50.108;8.640;2022-09-27T04:35:59;9.90;99.90
26342;DHT22;14054;50.108;8.640;2022-09-27T04:38:43;9.90;99.90
26342;DHT22;14054;50.108;8.640;2022-09-27T04:41:09;9.80;99.90
26342;DHT22;14054;50.108;8.640;2022-09-27T04:43:34;9.90;99.90
26342;DHT22;14054;50.108;8.640;2022-09-27T04:46:00;9.80;99.90
26342;DHT22;14054;50.108;8.640;2022-09-27T04:48:25;9.80;99.90
26342;DHT22;14054;50.108;8.640;2022-09-27T04:51:00;9.80;99.90
26342;DHT22;14054;50.108;8.640;2022-09-27T04:53:26;9.80;99.90
26342;DHT22;14054;50.108;8.640;2022-09-27T04:55:54;9.80;99.90
26342;DHT22;14054;50.108;8.640;2022-09-27T04:58:20;9.70;99.90
26342;DHT22;14054;50.108;8.640;2022-09-27T05:00:46;9.70;99.90
26342;DHT22;14054;50.108;8.640;2022-09-27T05:03:11;9.80;99.90
26342;DHT22;14054;50.108;8.640;2022-09-27T05:05:38;9.80;99.90
26342;DHT22;14054;50.108;8.640;2022-09-27T05:08:03;9.70;99.90
26342;DHT22;14054;50.108;8.640;2022-09-27T05:10:28;9.70;99.90
26342;DHT22;14054;50.108;8.640;2022-09-27T05:12:54;9.70;99.90
26342;DHT22;14054;50.108;8.640;2022-09-27T05:15:19;9.70;99.90
26342;DHT22;14054;50.108;8.640;2022-09-27T05:17:45;9.70;99.90
26342;DHT22;14054;50.108;8.640;2022-09-27T05:20:10;9.70;99.90
26342;DHT22;14054;50.108;8.640;2022-09-27T05:22:36;9.70;99.90
26342;DHT22;14054;50.108;8.640;2022-09-27T05:25:02;9.80;99.90
26342;DHT22;14054;50.108;8.640;2022-09-27T05:27:28;9.80;99.90
26342;DHT22;14054;50.108;8.640;2022-09-27T05:29:55;9.80;99.90
26342;DHT22;14054;50.108;8.640;2022-09-27T05:32:21;9.80;99.90
26342;DHT22;14054;50.108;8.640;2022-09-27T05:34:46;9.80;99.90
26342;DHT22;14054;50.108;8.640;2022-09-27T05:37:12;9.80;99.90
26342;DHT22;14054;50.108;8.640;2022-09-27T05:39:38;9.80;99.90
26342;DHT22;14054;50.108;8.640;2022-09-27T05:42:04;9.80;99.90
26342;DHT22;14054;50.108;8.640;2022-09-27T05:44:31;9.80;99.90
26342;DHT22;14054;50.108;8.640;2022-09-27T05:46:59;9.90;99.90
26342;DHT22;14054;50.108;8.640;2022-09-27T05:49:24;9.90;99.90
26342;DHT22;14054;50.108;8.640;2022-09-27T05:51:49;9.90;99.90
26342;DHT22;14054;50.108;8.640;2022-09-27T05:54:15;10.00;99.90
26342;DHT22;14054;50.108;8.640;2022-09-27T05:56:40;9.90;99.90
26342;DHT22;14054;50.108;8.640;2022-09-27T05:59:06;10.00;99.90
26342;DHT22;14054;50.108;8.640;2022-09-27T06:01:31;10.00;99.90
26342;DHT22;14054;50.108;8.640;2022-09-27T06:03:57;10.00;99.90
26342;DHT22;14054;50.108;8.640;2022-09-27T06:06:23;10.00;99.90
26342;DHT22;14054;50.108;8.640;2022-09-27T06:08:48;10.00;99.90
26342;DHT22;14054;50.108;8.640;2022-09-27T06:11:14;10.00;99.90
26342;DHT22;14054;50.108;8.640;2022-09-27T06:13:39;10.10;99.90
26342;DHT22;14054;50.108;8.640;2022-09-27T06:16:06;10.10;99.90
26342;DHT22;14054;50.108;8.640;2022-09-27T06:18:31;10.10;99.90
26342;DHT22;14054;50.108;8.640;2022-09-27T06:20:58;10.10;99.90
26342;DHT22;14054;50.108;8.640;2022-09-27T06:23:24;10.10;99.90
26342;DHT22;14054;50.108;8.640;2022-09-27T06:25:49;10.10;99.90
26342;DHT22;14054;50.108;8.640;2022-09-27T06:28:15;10.10;99.90
26342;DHT22;14054;50.108;8.640;2022-09-27T06:30:45;10.10;99.90
26342;DHT22;14054;50.108;8.640;2022-09-27T06:33:11;10.10;99.90
26342;DHT22;14054;50.108;8.640;2022-09-27T06:35:37;10.20;99.90
26342;DHT22;14054;50.108;8.640;2022-09-27T06:38:04;10.20;99.90
26342;DHT22;14054;50.108;8.640;2022-09-27T06:40:30;10.20;99.90
26342;DHT22;14054;50.108;8.640;2022-09-27T06:43:08;10.20;99.90
26342;DHT22;14054;50.108;8.640;2022-09-27T06:45:34;10.30;99.90
26342;DHT22;14054;50.108;8.640;2022-09-27T06:48:00;10.30;99.90
26342;DHT22;14054;50.108;8.640;2022-09-27T06:50:30;10.40;99.90
26342;DHT22;14054;50.108;8.640;2022-09-27T06:52:57;10.40;99.90
26342;DHT22;14054;50.108;8.640;2022-09-27T06:55:22;10.50;99.90
26342;DHT22;14054;50.108;8.640;2022-09-27T06:57:48;10.60;99.90
26342;DHT22;14054;50.108;8.640;2022-09-27T07:00:32;10.60;99.90
26342;DHT22;14054;50.108;8.640;2022-09-27T07:02:57;10.70;99.90
26342;DHT22;14054;50.108;8.640;2022-09-27T07:05:26;10.70;99.90
26342;DHT22;14054;50.108;8.640;2022-09-27T07:07:53;10.80;99.90
26342;DHT22;14054;50.108;8.640;2022-09-27T07:10:20;10.80;99.90
26342;DHT22;14054;50.108;8.640;2022-09-27T07:12:46;10.90;99.90
26342;DHT22;14054;50.108;8.640;2022-09-27T07:15:14;10.90;99.90
26342;DHT22;14054;50.108;8.640;2022-09-27T07:17:40;11.00;99.90
26342;DHT22;14054;50.108;8.640;2022-09-27T07:20:05;11.00;99.90
26342;DHT22;14054;50.108;8.640;2022-09-27T07:22:31;11.10;99.90
26342;DHT22;14054;50.108;8.640;2022-09-27T07:24:56;11.10;99.90
26342;DHT22;14054;50.108;8.640;2022-09-27T07:27:22;11.00;99.90
26342;DHT22;14054;50.108;8.640;2022-09-27T07:29:49;11.10;99.90
26342;DHT22;14054;50.108;8.640;2022-09-27T07:32:14;11.10;99.90
26342;DHT22;14054;50.108;8.640;2022-09-27T07:34:40;11.20;99.90
26342;DHT22;14054;50.108;8.640;2022-09-27T07:37:06;11.20;99.90
26342;DHT22;14054;50.108;8.640;2022-09-27T07:39:31;11.20;99.90
26342;DHT22;14054;50.108;8.640;2022-09-27T07:41:57;11.20;99.90
26342;DHT22;14054;50.108;8.640;2022-09-27T07:44:22;11.20;99.90
26342;DHT22;14054;50.108;8.640;2022-09-27T07:46:48;11.30;99.90
26342;DHT22;14054;50.108;8.640;2022-09-27T07:49:13;11.30;99.90
26342;DHT22;14054;50.108;8.640;2022-09-27T07:51:39;11.30;99.90
26342;DHT22;14054;50.108;8.640;2022-09-27T07:54:04;11.40;99.90
26342;DHT22;14054;50.108;8.640;2022-09-27T07:56:30;11.50;99.90
26342;DHT22;14054;50.108;8.640;2022-09-27T07:58:56;11.50;99.90
26342;DHT22;14054;50.108;8.640;2022-09-27T08:01:21;11.60;99.90
26342;DHT22;14054;50.108;8.640;2022-09-27T08:03:46;11.80;99.90
26342;DHT22;14054;50.108;8.640;2022-09-27T08:06:12;11.80;99.90
26342;DHT22;14054;50.108;8.640;2022-09-27T08:08:38;11.90;99.90
26342;DHT22;14054;50.108;8.640;2022-09-27T08:11:10;12.10;99.90
26342;DHT22;14054;50.108;8.640;2022-09-27T08:13:38;12.10;99.90
26342;DHT22;14054;50.108;8.640;2022-09-27T08:16:04;12.30;99.90
26342;DHT22;14054;50.108;8.640;2022-09-27T08:18:30;12.60;99.90
26342;DHT22;14054;50.108;8.640;2022-09-27T08:20:58;12.90;99.90
26342;DHT22;14054;50.108;8.640;2022-09-27T08:23:24;12.80;99.90
26342;DHT22;14054;50.108;8.640;2022-09-27T08:25:51;12.60;99.90
26342;DHT22;14054;50.108;8.640;2022-09-27T08:28:17;12.60;99.90
26342;DHT22;14054;50.108;8.640;2022-09-27T08:30:43;12.50;99.90
26342;DHT22;14054;50.108;8.640;2022-09-27T08:33:08;12.50;99.90
26342;DHT22;14054;50.108;8.640;2022-09-27T08:35:33;12.60;99.90
26342;DHT22;14054;50.108;8.640;2022-09-27T08:38:00;12.70;99.90
26342;DHT22;14054;50.108;8.640;2022-09-27T08:45:28;12.90;99.90
26342;DHT22;14054;50.108;8.640;2022-09-27T08:47:56;13.00;99.90
26342;DHT22;14054;50.108;8.640;2022-09-27T08:50:32;12.90;99.90
26342;DHT22;14054;50.108;8.640;2022-09-27T08:53:01;12.70;99.90
26342;DHT22;14054;50.108;8.640;2022-09-27T08:55:32;12.60;99.90
26342;DHT22;14054;50.108;8.640;2022-09-27T08:58:01;12.70;99.90
26342;DHT22;14054;50.108;8.640;2022-09-27T09:00:28;12.70;99.90
26342;DHT22;14054;50.108;8.640;2022-09-27T09:02:54;12.70;99.90
26342;DHT22;14054;50.108;8.640;2022-09-27T09:07:56;12.60;99.90
26342;DHT22;14054;50.108;8.640;2022-09-27T09:18:29;13.60;99.90
26342;DHT22;14054;50.108;8.640;2022-09-27T09:28:43;13.80;99.90
26342;DHT22;14054;50.108;8.640;2022-09-27T09:33:48;13.40;99.90
26342;DHT22;14054;50.108;8.640;2022-09-27T09:36:28;13.40;99.90
26342;DHT22;14054;50.108;8.640;2022-09-27T09:38:57;13.30;99.90
26342;DHT22;14054;50.108;8.640;2022-09-27T09:41:27;13.40;99.90
26342;DHT22;14054;50.108;8.640;2022-09-27T09:43:57;13.40;99.90
26342;DHT22;14054;50.108;8.640;2022-09-27T09:48:56;13.30;99.90
26342;DHT22;14054;50.108;8.640;2022-09-27T09:51:25;13.10;99.90
26342;DHT22;14054;50.108;8.640;2022-09-27T09:53:53;13.00;99.90
26342;DHT22;14054;50.108;8.640;2022-09-27T09:56:22;13.00;99.90
26342;DHT22;14054;50.108;8.640;2022-09-27T09:58:58;13.10;99.90
26342;DHT22;14054;50.108;8.640;2022-09-27T10:01:33;13.20;99.90
26342;DHT22;14054;50.108;8.640;2022-09-27T10:04:00;13.20;99.90
26342;DHT22;14054;50.108;8.640;2022-09-27T10:06:26;13.10;99.90
26342;DHT22;14054;50.108;8.640;2022-09-27T10:08:52;13.30;99.90
26342;DHT22;14054;50.108;8.640;2022-09-27T10:11:21;13.40;99.90
26342;DHT22;14054;50.108;8.640;2022-09-27T10:13:47;13.80;99.90
26342;DHT22;14054;50.108;8.640;2022-09-27T10:16:13;14.50;99.90
26342;DHT22;14054;50.108;8.640;2022-09-27T10:18:40;14.60;99.90
26342;DHT22;14054;50.108;8.640;2022-09-27T10:21:07;14.50;99.90
26342;DHT22;14054;50.108;8.640;2022-09-27T10:23:35;14.80;99.90
26342;DHT22;14054;50.108;8.640;2022-09-27T10:26:08;14.70;99.90
26342;DHT22;14054;50.108;8.640;2022-09-27T10:28:36;14.90;99.90
26342;DHT22;14054;50.108;8.640;2022-09-27T10:31:03;14.80;99.90
26342;DHT22;14054;50.108;8.640;2022-09-27T10:33:30;14.90;99.90
26342;DHT22;14054;50.108;8.640;2022-09-27T10:35:56;15.10;99.90
26342;DHT22;14054;50.108;8.640;2022-09-27T10:38:23;14.90;99.90
26342;DHT22;14054;50.108;8.640;2022-09-27T10:40:49;14.90;99.90
26342;DHT22;14054;50.108;8.640;2022-09-27T10:43:23;14.70;99.90
26342;DHT22;14054;50.108;8.640;2022-09-27T10:45:49;14.60;99.90
26342;DHT22;14054;50.108;8.640;2022-09-27T10:48:19;14.50;99.90
26342;DHT22;14054;50.108;8.640;2022-09-27T10:50:56;14.40;99.90
26342;DHT22;14054;50.108;8.640;2022-09-27T10:53:23;14.10;99.90
26342;DHT22;14054;50.108;8.640;2022-09-27T10:55:49;13.80;99.90
26342;DHT22;14054;50.108;8.640;2022-09-27T11:00:54;13.80;99.90
26342;DHT22;14054;50.108;8.640;2022-09-27T11:03:19;13.90;99.90
26342;DHT22;14054;50.108;8.640;2022-09-27T11:05:45;13.90;99.90
26342;DHT22;14054;50.108;8.640;2022-09-27T11:10:42;14.40;99.90
26342;DHT22;14054;50.108;8.640;2022-09-27T11:13:12;14.30;99.90
26342;DHT22;14054;50.108;8.640;2022-09-27T11:20:57;14.00;99.90
26342;DHT22;14054;50.108;8.640;2022-09-27T11:28:25;14.50;99.90
26342;DHT22;14054;50.108;8.640;2022-09-27T11:31:13;14.40;99.90
26342;DHT22;14054;50.108;8.640;2022-09-27T11:33:50;14.60;99.90
26342;DHT22;14054;50.108;8.640;2022-09-27T11:38:52;15.90;99.90
26342;DHT22;14054;50.108;8.640;2022-09-27T11:41:37;16.00;99.90
26342;DHT22;14054;50.108;8.640;2022-09-27T11:44:09;15.90;99.90
26342;DHT22;14054;50.108;8.640;2022-09-27T11:46:36;15.50;99.90
26342;DHT22;14054;50.108;8.640;2022-09-27T11:51:35;15.10;99.90
26342;DHT22;14054;50.108;8.640;2022-09-27T11:59:23;15.30;99.90
26342;DHT22;14054;50.108;8.640;2022-09-27T12:01:55;15.20;99.90
26342;DHT22;14054;50.108;8.640;2022-09-27T12:07:09;15.60;99.90
26342;DHT22;14054;50.108;8.640;2022-09-27T12:09:39;15.60;99.90
26342;DHT22;14054;50.108;8.640;2022-09-27T12:12:17;16.40;99.90
26342;DHT22;14054;50.108;8.640;2022-09-27T12:14:46;17.50;99.90
26342;DHT22;14054;50.108;8.640;2022-09-27T12:17:20;20.40;93.10
26342;DHT22;14054;50.108;8.640;2022-09-27T12:19:48;23.00;77.70
26342;DHT22;14054;50.108;8.640;2022-09-27T12:22:17;21.80;72.80
26342;DHT22;14054;50.108;8.640;2022-09-27T12:24:44;22.20;72.20
26342;DHT22;14054;50.108;8.640;2022-09-27T12:27:14;22.20;69.10
26342;DHT22;14054;50.108;8.640;2022-09-27T12:29:42;21.40;74.50
26342;DHT22;14054;50.108;8.640;2022-09-27T12:32:21;21.60;72.70
26342;DHT22;14054;50.108;8.640;2022-09-27T12:37:30;19.80;81.90
26342;DHT22;14054;50.108;8.640;2022-09-27T12:40:02;20.00;80.40
26342;DHT22;14054;50.108;8.640;2022-09-27T12:42:35;20.30;81.60
26342;DHT22;14054;50.108;8.640;2022-09-27T12:45:03;20.50;80.40
26342;DHT22;14054;50.108;8.640;2022-09-27T12:50:02;18.70;87.00
26342;DHT22;14054;50.108;8.640;2022-09-27T12:52:30;18.70;88.20
26342;DHT22;14054;50.108;8.640;2022-09-27T12:55:05;18.90;90.40
26342;DHT22;14054;50.108;8.640;2022-09-27T13:02:35;18.20;91.80
26342;DHT22;14054;50.108;8.640;2022-09-27T13:05:18;17.50;93.30
26342;DHT22;14054;50.108;8.640;2022-09-27T13:10:48;15.80;99.90
26342;DHT22;14054;50.108;8.640;2022-09-27T13:13:18;15.10;99.90
26342;DHT22;14054;50.108;8.640;2022-09-27T13:15:45;14.90;99.90
26342;DHT22;14054;50.108;8.640;2022-09-27T13:18:28;14.60;99.90
26342;DHT22;14054;50.108;8.640;2022-09-27T13:20:53;14.20;99.90
26342;DHT22;14054;50.108;8.640;2022-09-27T13:25:55;14.50;99.90
26342;DHT22;14054;50.108;8.640;2022-09-27T13:30:54;14.30;99.90
26342;DHT22;14054;50.108;8.640;2022-09-27T13:33:20;14.20;99.90
26342;DHT22;14054;50.108;8.640;2022-09-27T13:38:30;14.50;99.90
26342;DHT22;14054;50.108;8.640;2022-09-27T13:43:46;14.20;99.90
26342;DHT22;14054;50.108;8.640;2022-09-27T13:46:18;14.10;99.90
26342;DHT22;14054;50.108;8.640;2022-09-27T13:48:58;13.70;99.90
26342;DHT22;14054;50.108;8.640;2022-09-27T13:51:48;13.60;99.90
26342;DHT22;14054;50.108;8.640;2022-09-27T13:57:00;13.50;99.90
26342;DHT22;14054;50.108;8.640;2022-09-27T13:59:31;13.50;99.90
26342;DHT22;14054;50.108;8.640;2022-09-27T14:01:59;13.50;99.90
26342;DHT22;14054;50.108;8.640;2022-09-27T14:04:29;13.60;99.90
26342;DHT22;14054;50.108;8.640;2022-09-27T14:07:00;13.40;99.90
26342;DHT22;14054;50.108;8.640;2022-09-27T14:09:27;13.40;99.90
26342;DHT22;14054;50.108;8.640;2022-09-27T14:11:55;13.40;99.90
26342;DHT22;14054;50.108;8.640;2022-09-27T14:14:22;13.40;99.90
26342;DHT22;14054;50.108;8.640;2022-09-27T14:16:48;13.50;99.90
26342;DHT22;14054;50.108;8.640;2022-09-27T14:19:15;13.60;99.90
26342;DHT22;14054;50.108;8.640;2022-09-27T14:21:42;13.60;99.90
26342;DHT22;14054;50.108;8.640;2022-09-27T14:24:27;13.70;99.90
26342;DHT22;14054;50.108;8.640;2022-09-27T14:27:04;13.80;99.90
26342;DHT22;14054;50.108;8.640;2022-09-27T14:29:31;13.80;99.90
26342;DHT22;14054;50.108;8.640;2022-09-27T14:32:03;14.00;99.90
26342;DHT22;14054;50.108;8.640;2022-09-27T14:34:29;14.10;99.90
26342;DHT22;14054;50.108;8.640;2022-09-27T14:36:54;14.30;99.90
26342;DHT22;14054;50.108;8.640;2022-09-27T14:39:39;14.40;99.90
26342;DHT22;14054;50.108;8.640;2022-09-27T14:42:15;14.50;99.90
26342;DHT22;14054;50.108;8.640;2022-09-27T14:44:42;14.40;99.90
26342;DHT22;14054;50.108;8.640;2022-09-27T14:49:34;14.10;99.90
26342;DHT22;14054;50.108;8.640;2022-09-27T14:51:59;14.10;99.90
26342;DHT22;14054;50.108;8.640;2022-09-27T14:54:26;13.90;99.90
26342;DHT22;14054;50.108;8.640;2022-09-27T14:56:53;13.90;99.90
26342;DHT22;14054;50.108;8.640;2022-09-27T15:01:50;13.50;99.90
26342;DHT22;14054;50.108;8.640;2022-09-27T15:04:16;13.40;99.90
26342;DHT22;14054;50.108;8.640;2022-09-27T15:06:43;13.40;99.90
26342;DHT22;14054;50.108;8.640;2022-09-27T15:09:10;13.30;99.90
26342;DHT22;14054;50.108;8.640;2022-09-27T15:11:38;13.30;99.90
26342;DHT22;14054;50.108;8.640;2022-09-27T15:14:04;13.30;99.90
26342;DHT22;14054;50.108;8.640;2022-09-27T15:16:29;13.20;99.90
26342;DHT22;14054;50.108;8.640;2022-09-27T15:19:00;13.00;99.90
26342;DHT22;14054;50.108;8.640;2022-09-27T15:21:31;12.90;99.90
26342;DHT22;14054;50.108;8.640;2022-09-27T15:23:57;12.70;99.90
26342;DHT22;14054;50.108;8.640;2022-09-27T15:26:40;12.50;99.90
26342;DHT22;14054;50.108;8.640;2022-09-27T15:29:28;12.30;99.90
26342;DHT22;14054;50.108;8.640;2022-09-27T15:31:59;12.00;99.90
26342;DHT22;14054;50.108;8.640;2022-09-27T15:34:25;11.80;99.90
26342;DHT22;14054;50.108;8.640;2022-09-27T15:36:55;11.70;99.90
26342;DHT22;14054;50.108;8.640;2022-09-27T15:39:28;11.70;99.90
26342;DHT22;14054;50.108;8.640;2022-09-27T15:42:02;11.50;99.90
26342;DHT22;14054;50.108;8.640;2022-09-27T15:44:50;11.30;99.90
26342;DHT22;14054;50.108;8.640;2022-09-27T15:49:57;11.30;99.90
26342;DHT22;14054;50.108;8.640;2022-09-27T15:52:38;11.20;99.90
26342;DHT22;14054;50.108;8.640;2022-09-27T15:55:04;11.20;99.90
26342;DHT22;14054;50.108;8.640;2022-09-27T15:57:30;11.40;99.90
26342;DHT22;14054;50.108;8.640;2022-09-27T15:59:56;11.40;99.90
26342;DHT22;14054;50.108;8.640;2022-09-27T16:02:21;11.40;99.90
26342;DHT22;14054;50.108;8.640;2022-09-27T16:04:46;11.40;99.90
26342;DHT22;14054;50.108;8.640;2022-09-27T16:07:12;11.50;99.90
26342;DHT22;14054;50.108;8.640;2022-09-27T16:09:39;11.50;99.90
26342;DHT22;14054;50.108;8.640;2022-09-27T16:12:04;11.50;99.90
26342;DHT22;14054;50.108;8.640;2022-09-27T16:14:30;11.40;99.90
26342;DHT22;14054;50.108;8.640;2022-09-27T16:16:55;11.30;99.90
26342;DHT22;14054;50.108;8.640;2022-09-27T16:19:22;11.10;99.90
26342;DHT22;14054;50.108;8.640;2022-09-27T16:21:47;10.80;99.90
26342;DHT22;14054;50.108;8.640;2022-09-27T16:24:14;10.60;99.90
26342;DHT22;14054;50.108;8.640;2022-09-27T16:26:39;10.60;99.90
26342;DHT22;14054;50.108;8.640;2022-09-27T16:29:08;10.60;99.90
26342;DHT22;14054;50.108;8.640;2022-09-27T16:31:34;10.50;99.90
26342;DHT22;14054;50.108;8.640;2022-09-27T16:34:00;10.50;99.90
26342;DHT22;14054;50.108;8.640;2022-09-27T16:36:25;10.50;99.90
26342;DHT22;14054;50.108;8.640;2022-09-27T16:38:51;10.40;99.90
26342;DHT22;14054;50.108;8.640;2022-09-27T16:41:20;10.50;99.90
26342;DHT22;14054;50.108;8.640;2022-09-27T16:43:46;10.50;99.90
26342;DHT22;14054;50.108;8.640;2022-09-27T16:46:12;10.50;99.90
26342;DHT22;14054;50.108;8.640;2022-09-27T16:48:40;10.50;99.90
26342;DHT22;14054;50.108;8.640;2022-09-27T16:51:08;10.60;99.90
26342;DHT22;14054;50.108;8.640;2022-09-27T16:53:52;10.50;99.90
26342;DHT22;14054;50.108;8.640;2022-09-27T16:56:18;10.50;99.90
26342;DHT22;14054;50.108;8.640;2022-09-27T16:58:44;10.50;99.90
26342;DHT22;14054;50.108;8.640;2022-09-27T17:01:10;10.50;99.90
26342;DHT22;14054;50.108;8.640;2022-09-27T17:03:35;10.40;99.90
26342;DHT22;14054;50.108;8.640;2022-09-27T17:06:01;10.50;99.90
26342;DHT22;14054;50.108;8.640;2022-09-27T17:08:28;10.40;99.90
26342;DHT22;14054;50.108;8.640;2022-09-27T17:10:54;10.40;99.90
26342;DHT22;14054;50.108;8.640;2022-09-27T17:13:21;10.50;99.90
26342;DHT22;14054;50.108;8.640;2022-09-27T17:15:47;10.50;99.90
26342;DHT22;14054;50.108;8.640;2022-09-27T17:18:12;10.50;99.90
26342;DHT22;14054;50.108;8.640;2022-09-27T17:20:38;10.40;99.90
26342;DHT22;14054;50.108;8.640;2022-09-27T17:23:03;10.40;99.90
26342;DHT22;14054;50.108;8.640;2022-09-27T17:25:29;10.50;99.90
26342;DHT22;14054;50.108;8.640;2022-09-27T17:27:55;10.60;99.90
26342;DHT22;14054;50.108;8.640;2022-09-27T17:30:20;10.70;99.90
26342;DHT22;14054;50.108;8.640;2022-09-27T17:32:46;10.60;99.90
26342;DHT22;14054;50.108;8.640;2022-09-27T17:35:11;10.50;99.90
26342;DHT22;14054;50.108;8.640;2022-09-27T17:37:37;10.50;99.90
26342;DHT22;14054;50.108;8.640;2022-09-27T17:40:03;10.60;99.90
26342;DHT22;14054;50.108;8.640;2022-09-27T17:42:28;10.50;99.90
26342;DHT22;14054;50.108;8.640;2022-09-27T17:44:54;10.60;99.90
26342;DHT22;14054;50.108;8.640;2022-09-27T17:47:19;10.50;99.90
26342;DHT22;14054;50.108;8.640;2022-09-27T17:50:03;10.50;99.90